sensor_id;sensor_type;location;lat;lon;timestamp;P1;P2;P0
68698;PMS7003;55680;48.850;2.310;2022-08-04T00:01:49;1.75;1.75;1.75
68698;PMS7003;55680;48.850;2.310;2022-08-04T00:04:22;2.00;2.00;2.00
68698;PMS7003;55680;48.850;2.310;2022-08-04T00:07:05;1.25;1.25;1.00
68698;PMS7003;55680;48.850;2.310;2022-08-04T00:12:15;1.50;1.50;0.50
68698;PMS7003;55680;48.850;2.310;2022-08-04T00:14:45;1.75;1.75;1.00
68698;PMS7003;55680;48.850;2.310;2022-08-04T00:17:12;3.75;2.00;1.75
68698;PMS7003;55680;48.850;2.310;2022-08-04T00:19:39;2.00;2.00;1.00
68698;PMS7003;55680;48.850;2.310;2022-08-04T00:22:08;7.00;2.75;1.00
68698;PMS7003;55680;48.850;2.310;2022-08-04T00:24:35;3.50;2.00;1.00
68698;PMS7003;55680;48.850;2.310;2022-08-04T00:27:01;2.75;2.75;1.00
68698;PMS7003;55680;48.850;2.310;2022-08-04T00:29:27;2.00;2.00;2.00
68698;PMS7003;55680;48.850;2.310;2022-08-04T00:31:55;1.75;1.75;0.75
68698;PMS7003;55680;48.850;2.310;2022-08-04T00:34:27;3.00;3.00;1.50
68698;PMS7003;55680;48.850;2.310;2022-08-04T00:36:53;2.50;2.00;1.75
68698;PMS7003;55680;48.850;2.310;2022-08-04T00:39:19;3.00;3.00;2.75
68698;PMS7003;55680;48.850;2.310;2022-08-04T00:41:50;1.75;1.75;1.75
68698;PMS7003;55680;48.850;2.310;2022-08-04T00:44:32;2.75;2.75;2.00
68698;PMS7003;55680;48.850;2.310;2022-08-04T01:00:16;1.75;1.75;1.00
68698;PMS7003;55680;48.850;2.310;2022-08-04T01:10:47;4.50;3.00;2.00
68698;PMS7003;55680;48.850;2.310;2022-08-04T01:16:06;7.00;3.75;3.00
68698;PMS7003;55680;48.850;2.310;2022-08-04T01:26:49;4.00;4.00;3.00
68698;PMS7003;55680;48.850;2.310;2022-08-04T01:29:25;2.50;2.50;2.00
68698;PMS7003;55680;48.850;2.310;2022-08-04T01:34:35;3.00;3.00;2.00
68698;PMS7003;55680;48.850;2.310;2022-08-04T01:40:13;4.00;3.00;2.00
68698;PMS7003;55680;48.850;2.310;2022-08-04T01:42:40;3.00;3.00;3.00
68698;PMS7003;55680;48.850;2.310;2022-08-04T01:45:07;4.75;2.00;1.00
68698;PMS7003;55680;48.850;2.310;2022-08-04T01:47:37;5.75;3.50;2.00
68698;PMS7003;55680;48.850;2.310;2022-08-04T01:50:07;3.00;3.00;2.00
68698;PMS7003;55680;48.850;2.310;2022-08-04T01:52:37;3.00;1.50;1.00
68698;PMS7003;55680;48.850;2.310;2022-08-04T01:55:04;2.75;2.75;2.00
68698;PMS7003;55680;48.850;2.310;2022-08-04T01:57:33;3.00;1.50;1.50
68698;PMS7003;55680;48.850;2.310;2022-08-04T02:00:00;7.25;3.00;2.00
68698;PMS7003;55680;48.850;2.310;2022-08-04T02:02:28;4.50;2.50;1.50
68698;PMS7003;55680;48.850;2.310;2022-08-04T02:04:53;2.75;2.75;1.50
68698;PMS7003;55680;48.850;2.310;2022-08-04T02:07:27;1.00;1.00;1.00
68698;PMS7003;55680;48.850;2.310;2022-08-04T02:12:58;3.00;3.00;2.00
68698;PMS7003;55680;48.850;2.310;2022-08-04T02:15:34;2.00;2.00;2.00
68698;PMS7003;55680;48.850;2.310;2022-08-04T02:20:43;5.25;3.00;2.25
68698;PMS7003;55680;48.850;2.310;2022-08-04T02:23:14;4.00;1.25;1.25
68698;PMS7003;55680;48.850;2.310;2022-08-04T02:25:57;3.75;3.00;2.50
68698;PMS7003;55680;48.850;2.310;2022-08-04T02:31:12;5.25;4.00;2.00
68698;PMS7003;55680;48.850;2.310;2022-08-04T02:34:03;2.50;2.50;1.75
68698;PMS7003;55680;48.850;2.310;2022-08-04T02:37:05;2.75;2.00;1.00
68698;PMS7003;55680;48.850;2.310;2022-08-04T02:39:34;2.00;2.00;2.00
68698;PMS7003;55680;48.850;2.310;2022-08-04T02:42:01;3.75;2.75;2.00
68698;PMS7003;55680;48.850;2.310;2022-08-04T02:44:30;3.75;3.00;2.25
68698;PMS7003;55680;48.850;2.310;2022-08-04T02:46:56;4.25;3.00;2.00
68698;PMS7003;55680;48.850;2.310;2022-08-04T02:49:22;5.00;3.00;2.50
68698;PMS7003;55680;48.850;2.310;2022-08-04T02:51:51;4.50;3.00;2.75
68698;PMS7003;55680;48.850;2.310;2022-08-04T02:54:18;3.25;3.25;1.75
68698;PMS7003;55680;48.850;2.310;2022-08-04T02:56:48;3.75;3.75;2.00
68698;PMS7003;55680;48.850;2.310;2022-08-04T02:59:16;4.00;4.00;2.00
68698;PMS7003;55680;48.850;2.310;2022-08-04T03:01:44;7.25;2.50;2.00
68698;PMS7003;55680;48.850;2.310;2022-08-04T03:15:09;5.00;3.00;2.25
68698;PMS7003;55680;48.850;2.310;2022-08-04T03:23:21;3.50;3.50;3.00
68698;PMS7003;55680;48.850;2.310;2022-08-04T03:34:04;2.75;2.75;1.75
68698;PMS7003;55680;48.850;2.310;2022-08-04T03:42:28;5.00;3.00;3.00
68698;PMS7003;55680;48.850;2.310;2022-08-04T04:08:08;1.00;1.00;1.00
68698;PMS7003;55680;48.850;2.310;2022-08-04T04:16:31;4.00;2.25;2.00
68698;PMS7003;55680;48.850;2.310;2022-08-04T04:30:17;2.75;2.75;2.00
68698;PMS7003;55680;48.850;2.310;2022-08-04T04:33:02;4.75;3.00;3.00
68698;PMS7003;55680;48.850;2.310;2022-08-04T04:38:29;5.00;3.25;3.00
68698;PMS7003;55680;48.850;2.310;2022-08-04T04:41:14;5.00;5.00;3.00
68698;PMS7003;55680;48.850;2.310;2022-08-04T04:43:56;4.50;4.50;2.25
68698;PMS7003;55680;48.850;2.310;2022-08-04T04:46:49;2.00;2.00;1.25
68698;PMS7003;55680;48.850;2.310;2022-08-04T04:49:36;5.75;2.25;1.25
68698;PMS7003;55680;48.850;2.310;2022-08-04T04:52:35;4.75;3.00;2.00
68698;PMS7003;55680;48.850;2.310;2022-08-04T04:55:09;4.00;3.75;2.75
68698;PMS7003;55680;48.850;2.310;2022-08-04T04:57:40;3.25;3.25;2.75
68698;PMS7003;55680;48.850;2.310;2022-08-04T05:00:06;2.50;2.50;2.00
68698;PMS7003;55680;48.850;2.310;2022-08-04T05:13:44;4.25;3.25;2.75
68698;PMS7003;55680;48.850;2.310;2022-08-04T05:16:23;5.25;3.25;2.00
68698;PMS7003;55680;48.850;2.310;2022-08-04T05:22:05;3.25;3.25;2.75
68698;PMS7003;55680;48.850;2.310;2022-08-04T05:24:35;3.00;3.00;2.00
68698;PMS7003;55680;48.850;2.310;2022-08-04T05:27:02;3.75;3.75;2.00
68698;PMS7003;55680;48.850;2.310;2022-08-04T05:29:35;8.00;2.50;1.50
68698;PMS7003;55680;48.850;2.310;2022-08-04T05:32:04;4.00;3.00;2.00
68698;PMS7003;55680;48.850;2.310;2022-08-04T05:34:34;3.00;3.00;3.00
68698;PMS7003;55680;48.850;2.310;2022-08-04T05:37:08;3.00;3.00;2.00
68698;PMS7003;55680;48.850;2.310;2022-08-04T05:39:41;1.25;1.25;1.00
68698;PMS7003;55680;48.850;2.310;2022-08-04T05:42:10;3.50;2.50;2.00
68698;PMS7003;55680;48.850;2.310;2022-08-04T05:44:36;2.00;2.00;1.00
68698;PMS7003;55680;48.850;2.310;2022-08-04T05:47:02;2.50;2.50;2.00
68698;PMS7003;55680;48.850;2.310;2022-08-04T05:49:28;5.25;3.75;2.00
68698;PMS7003;55680;48.850;2.310;2022-08-04T05:51:56;4.00;2.50;1.75
68698;PMS7003;55680;48.850;2.310;2022-08-04T05:54:23;7.00;5.00;3.50
68698;PMS7003;55680;48.850;2.310;2022-08-04T05:56:49;6.25;4.00;3.00
68698;PMS7003;55680;48.850;2.310;2022-08-04T05:59:15;6.75;3.00;2.00
68698;PMS7003;55680;48.850;2.310;2022-08-04T06:01:41;4.50;3.50;2.25
68698;PMS7003;55680;48.850;2.310;2022-08-04T06:04:07;3.75;2.75;2.00
68698;PMS7003;55680;48.850;2.310;2022-08-04T06:06:33;3.75;2.25;2.00
68698;PMS7003;55680;48.850;2.310;2022-08-04T06:08:59;3.75;3.00;2.00
68698;PMS7003;55680;48.850;2.310;2022-08-04T06:11:26;4.50;2.25;2.00
68698;PMS7003;55680;48.850;2.310;2022-08-04T06:13:53;3.00;3.00;2.00
68698;PMS7003;55680;48.850;2.310;2022-08-04T06:16:22;4.00;1.50;1.50
68698;PMS7003;55680;48.850;2.310;2022-08-04T06:18:48;2.75;2.75;1.25
68698;PMS7003;55680;48.850;2.310;2022-08-04T06:21:16;5.25;3.00;2.00
68698;PMS7003;55680;48.850;2.310;2022-08-04T06:23:44;5.00;4.00;2.75
68698;PMS7003;55680;48.850;2.310;2022-08-04T06:26:10;4.00;3.50;2.00
68698;PMS7003;55680;48.850;2.310;2022-08-04T06:28:42;4.25;4.00;3.00
68698;PMS7003;55680;48.850;2.310;2022-08-04T06:31:08;4.25;4.25;2.25
68698;PMS7003;55680;48.850;2.310;2022-08-04T06:33:33;5.25;2.75;2.00
68698;PMS7003;55680;48.850;2.310;2022-08-04T06:36:01;5.25;4.25;2.25
68698;PMS7003;55680;48.850;2.310;2022-08-04T06:38:29;5.00;3.50;2.50
68698;PMS7003;55680;48.850;2.310;2022-08-04T06:40:56;3.75;3.75;2.25
68698;PMS7003;55680;48.850;2.310;2022-08-04T06:43:22;5.00;2.25;2.00
68698;PMS7003;55680;48.850;2.310;2022-08-04T06:45:48;4.00;4.00;2.50
68698;PMS7003;55680;48.850;2.310;2022-08-04T06:48:13;7.00;3.25;2.00
68698;PMS7003;55680;48.850;2.310;2022-08-04T06:50:40;3.75;2.00;1.25
68698;PMS7003;55680;48.850;2.310;2022-08-04T06:53:09;3.25;3.25;2.25
68698;PMS7003;55680;48.850;2.310;2022-08-04T06:55:34;4.00;3.25;1.50
68698;PMS7003;55680;48.850;2.310;2022-08-04T06:58:01;6.25;4.00;2.00
68698;PMS7003;55680;48.850;2.310;2022-08-04T07:00:27;3.25;2.00;1.75
68698;PMS7003;55680;48.850;2.310;2022-08-04T07:02:53;6.00;3.50;2.75
68698;PMS7003;55680;48.850;2.310;2022-08-04T07:05:19;6.50;3.75;3.00
68698;PMS7003;55680;48.850;2.310;2022-08-04T07:07:45;4.00;3.00;1.75
68698;PMS7003;55680;48.850;2.310;2022-08-04T07:10:12;9.25;2.75;1.75
68698;PMS7003;55680;48.850;2.310;2022-08-04T07:12:38;5.00;2.50;1.50
68698;PMS7003;55680;48.850;2.310;2022-08-04T07:15:05;4.00;4.00;2.00
68698;PMS7003;55680;48.850;2.310;2022-08-04T07:17:31;3.50;2.00;1.50
68698;PMS7003;55680;48.850;2.310;2022-08-04T07:19:58;5.00;2.00;1.00
68698;PMS7003;55680;48.850;2.310;2022-08-04T07:22:24;3.00;3.00;1.25
68698;PMS7003;55680;48.850;2.310;2022-08-04T07:24:53;7.25;4.00;2.50
68698;PMS7003;55680;48.850;2.310;2022-08-04T07:27:19;2.00;2.00;1.00
68698;PMS7003;55680;48.850;2.310;2022-08-04T07:29:45;4.00;4.00;1.50
68698;PMS7003;55680;48.850;2.310;2022-08-04T07:32:11;3.25;2.00;1.25
68698;PMS7003;55680;48.850;2.310;2022-08-04T07:34:37;3.25;3.25;1.75
68698;PMS7003;55680;48.850;2.310;2022-08-04T07:37:03;6.00;3.75;2.00
68698;PMS7003;55680;48.850;2.310;2022-08-04T07:39:29;2.75;2.00;1.00
68698;PMS7003;55680;48.850;2.310;2022-08-04T07:41:58;6.00;3.25;3.00
68698;PMS7003;55680;48.850;2.310;2022-08-04T07:44:25;2.75;2.75;2.00
68698;PMS7003;55680;48.850;2.310;2022-08-04T07:46:51;3.00;3.00;2.25
68698;PMS7003;55680;48.850;2.310;2022-08-04T07:49:16;5.25;3.00;2.00
68698;PMS7003;55680;48.850;2.310;2022-08-04T07:51:41;5.00;4.00;2.50
68698;PMS7003;55680;48.850;2.310;2022-08-04T07:54:07;5.50;4.00;2.00
68698;PMS7003;55680;48.850;2.310;2022-08-04T07:56:35;11.25;5.75;3.00
68698;PMS7003;55680;48.850;2.310;2022-08-04T07:59:03;6.00;4.00;3.00
68698;PMS7003;55680;48.850;2.310;2022-08-04T08:01:30;2.25;2.25;1.50
68698;PMS7003;55680;48.850;2.310;2022-08-04T08:03:56;3.25;3.25;2.25
68698;PMS7003;55680;48.850;2.310;2022-08-04T08:06:22;4.25;3.25;2.25
68698;PMS7003;55680;48.850;2.310;2022-08-04T08:08:48;2.25;2.25;2.00
68698;PMS7003;55680;48.850;2.310;2022-08-04T08:11:15;3.25;2.00;2.00
68698;PMS7003;55680;48.850;2.310;2022-08-04T08:13:41;3.00;3.00;2.00
68698;PMS7003;55680;48.850;2.310;2022-08-04T08:16:08;3.50;3.25;2.50
68698;PMS7003;55680;48.850;2.310;2022-08-04T08:18:33;5.75;4.00;3.00
68698;PMS7003;55680;48.850;2.310;2022-08-04T08:20:58;2.00;2.00;1.00
68698;PMS7003;55680;48.850;2.310;2022-08-04T08:23:24;3.00;2.00;1.00
68698;PMS7003;55680;48.850;2.310;2022-08-04T08:25:50;3.75;2.75;2.00
68698;PMS7003;55680;48.850;2.310;2022-08-04T08:28:15;3.25;2.50;1.75
68698;PMS7003;55680;48.850;2.310;2022-08-04T08:30:41;6.75;2.75;2.25
68698;PMS7003;55680;48.850;2.310;2022-08-04T08:33:08;4.75;4.25;2.25
68698;PMS7003;55680;48.850;2.310;2022-08-04T08:35:51;1.00;1.00;1.00
68698;PMS7003;55680;48.850;2.310;2022-08-04T08:38:17;4.00;4.00;1.50
68698;PMS7003;55680;48.850;2.310;2022-08-04T08:40:58;3.25;3.25;2.00
68698;PMS7003;55680;48.850;2.310;2022-08-04T08:54:55;1.75;1.25;1.00
68698;PMS7003;55680;48.850;2.310;2022-08-04T09:08:49;2.25;2.00;2.00
68698;PMS7003;55680;48.850;2.310;2022-08-04T09:11:43;2.50;1.25;0.75
68698;PMS7003;55680;48.850;2.310;2022-08-04T09:14:24;4.00;2.00;1.00
68698;PMS7003;55680;48.850;2.310;2022-08-04T09:16:56;0.00;0.00;0.00
68698;PMS7003;55680;48.850;2.310;2022-08-04T09:19:27;3.25;1.75;1.00
68698;PMS7003;55680;48.850;2.310;2022-08-04T09:22:08;2.00;1.00;1.00
68698;PMS7003;55680;48.850;2.310;2022-08-04T09:24:53;6.00;3.00;2.00
68698;PMS7003;55680;48.850;2.310;2022-08-04T09:32:37;2.75;2.00;1.00
68698;PMS7003;55680;48.850;2.310;2022-08-04T09:41:27;5.00;4.00;1.50
68698;PMS7003;55680;48.850;2.310;2022-08-04T09:46:31;1.00;1.00;1.00
68698;PMS7003;55680;48.850;2.310;2022-08-04T09:49:04;0.00;0.00;0.00
68698;PMS7003;55680;48.850;2.310;2022-08-04T09:59:47;2.50;2.50;1.00
68698;PMS7003;55680;48.850;2.310;2022-08-04T10:02:20;2.00;1.00;1.00
68698;PMS7003;55680;48.850;2.310;2022-08-04T10:04:46;4.25;2.00;1.50
68698;PMS7003;55680;48.850;2.310;2022-08-04T10:12:28;1.00;1.00;0.25
68698;PMS7003;55680;48.850;2.310;2022-08-04T10:20:12;1.25;1.25;1.00
68698;PMS7003;55680;48.850;2.310;2022-08-04T10:28:11;0.50;0.50;0.50
68698;PMS7003;55680;48.850;2.310;2022-08-04T10:30:40;1.00;1.00;0.00
68698;PMS7003;55680;48.850;2.310;2022-08-04T10:33:48;1.50;0.50;0.50
68698;PMS7003;55680;48.850;2.310;2022-08-04T10:36:25;1.00;1.00;1.00
68698;PMS7003;55680;48.850;2.310;2022-08-04T10:39:06;1.00;1.00;0.75
68698;PMS7003;55680;48.850;2.310;2022-08-04T10:41:44;2.25;0.50;0.50
68698;PMS7003;55680;48.850;2.310;2022-08-04T10:46:53;0.75;0.75;0.25
68698;PMS7003;55680;48.850;2.310;2022-08-04T10:49:44;4.00;3.00;0.00
68698;PMS7003;55680;48.850;2.310;2022-08-04T10:52:32;0.50;0.50;0.50
68698;PMS7003;55680;48.850;2.310;2022-08-04T10:55:18;0.75;0.75;0.75
68698;PMS7003;55680;48.850;2.310;2022-08-04T10:57:54;4.00;2.00;1.00
68698;PMS7003;55680;48.850;2.310;2022-08-04T11:00:24;1.00;1.00;1.00
68698;PMS7003;55680;48.850;2.310;2022-08-04T11:08:20;1.75;1.25;0.50
68698;PMS7003;55680;48.850;2.310;2022-08-04T11:16:24;1.25;1.25;1.00
68698;PMS7003;55680;48.850;2.310;2022-08-04T11:19:12;1.50;1.00;1.00
68698;PMS7003;55680;48.850;2.310;2022-08-04T11:21:42;1.25;1.00;0.75
68698;PMS7003;55680;48.850;2.310;2022-08-04T11:24:15;2.75;2.75;1.00
68698;PMS7003;55680;48.850;2.310;2022-08-04T11:26:57;2.50;1.00;1.00
68698;PMS7003;55680;48.850;2.310;2022-08-04T11:29:37;1.00;1.00;0.00
68698;PMS7003;55680;48.850;2.310;2022-08-04T11:32:07;1.00;1.00;1.00
68698;PMS7003;55680;48.850;2.310;2022-08-04T11:34:36;3.00;3.00;1.00
68698;PMS7003;55680;48.850;2.310;2022-08-04T11:37:10;1.25;1.25;0.50
68698;PMS7003;55680;48.850;2.310;2022-08-04T11:39:49;4.00;3.25;1.25
68698;PMS7003;55680;48.850;2.310;2022-08-04T11:45:10;1.75;1.75;1.00
68698;PMS7003;55680;48.850;2.310;2022-08-04T11:47:47;3.50;0.75;0.75
68698;PMS7003;55680;48.850;2.310;2022-08-04T11:53:05;1.00;1.00;1.00
68698;PMS7003;55680;48.850;2.310;2022-08-04T11:55:32;2.75;2.75;2.00
68698;PMS7003;55680;48.850;2.310;2022-08-04T11:57:58;2.50;2.50;1.75
68698;PMS7003;55680;48.850;2.310;2022-08-04T12:00:24;0.50;0.50;0.50
68698;PMS7003;55680;48.850;2.310;2022-08-04T12:11:34;7.50;4.00;2.00
68698;PMS7003;55680;48.850;2.310;2022-08-04T12:16:57;2.75;2.75;2.00
68698;PMS7003;55680;48.850;2.310;2022-08-04T12:22:15;3.00;1.75;1.00
68698;PMS7003;55680;48.850;2.310;2022-08-04T12:24:45;4.00;3.00;2.00
68698;PMS7003;55680;48.850;2.310;2022-08-04T12:27:13;3.50;2.50;2.00
68698;PMS7003;55680;48.850;2.310;2022-08-04T12:29:40;5.00;3.25;2.00
68698;PMS7003;55680;48.850;2.310;2022-08-04T12:32:15;2.50;2.00;1.25
68698;PMS7003;55680;48.850;2.310;2022-08-04T12:34:48;3.00;1.00;1.00
68698;PMS7003;55680;48.850;2.310;2022-08-04T12:37:26;4.00;3.00;2.00
68698;PMS7003;55680;48.850;2.310;2022-08-04T12:40:00;2.00;2.00;1.00
68698;PMS7003;55680;48.850;2.310;2022-08-04T12:42:32;2.25;2.25;1.00
68698;PMS7003;55680;48.850;2.310;2022-08-04T12:45:02;1.75;0.75;0.75
68698;PMS7003;55680;48.850;2.310;2022-08-04T12:47:31;3.25;3.00;2.00
68698;PMS7003;55680;48.850;2.310;2022-08-04T12:50:03;2.75;2.75;2.00
68698;PMS7003;55680;48.850;2.310;2022-08-04T12:52:29;4.25;2.00;2.00
68698;PMS7003;55680;48.850;2.310;2022-08-04T12:55:05;2.00;2.00;1.50
68698;PMS7003;55680;48.850;2.310;2022-08-04T12:57:31;2.00;2.00;2.00
68698;PMS7003;55680;48.850;2.310;2022-08-04T12:59:58;2.00;2.00;1.25
68698;PMS7003;55680;48.850;2.310;2022-08-04T13:02:25;2.00;2.00;2.00
68698;PMS7003;55680;48.850;2.310;2022-08-04T13:04:53;2.75;2.00;1.25
68698;PMS7003;55680;48.850;2.310;2022-08-04T13:07:20;1.00;1.00;1.00
68698;PMS7003;55680;48.850;2.310;2022-08-04T13:09:48;2.25;2.00;2.00
68698;PMS7003;55680;48.850;2.310;2022-08-04T13:12:15;1.00;1.00;1.00
68698;PMS7003;55680;48.850;2.310;2022-08-04T13:14:43;2.50;2.00;1.25
68698;PMS7003;55680;48.850;2.310;2022-08-04T13:17:12;5.00;3.50;3.00
68698;PMS7003;55680;48.850;2.310;2022-08-04T13:19:38;6.75;6.75;2.75
68698;PMS7003;55680;48.850;2.310;2022-08-04T13:22:10;5.00;4.00;2.75
68698;PMS7003;55680;48.850;2.310;2022-08-04T13:24:36;2.00;2.00;2.00
68698;PMS7003;55680;48.850;2.310;2022-08-04T13:27:06;8.25;4.25;3.00
68698;PMS7003;55680;48.850;2.310;2022-08-04T13:29:40;6.25;4.00;3.25
68698;PMS7003;55680;48.850;2.310;2022-08-04T13:32:08;7.00;3.75;2.75
68698;PMS7003;55680;48.850;2.310;2022-08-04T13:34:34;3.50;3.50;2.25
68698;PMS7003;55680;48.850;2.310;2022-08-04T13:37:00;2.50;2.50;2.00
68698;PMS7003;55680;48.850;2.310;2022-08-04T13:39:26;3.00;3.00;3.00
68698;PMS7003;55680;48.850;2.310;2022-08-04T13:41:54;2.00;2.00;1.75
68698;PMS7003;55680;48.850;2.310;2022-08-04T13:44:22;2.25;2.25;2.00
68698;PMS7003;55680;48.850;2.310;2022-08-04T13:46:55;2.00;2.00;1.25
68698;PMS7003;55680;48.850;2.310;2022-08-04T13:49:28;7.00;5.00;3.00
68698;PMS7003;55680;48.850;2.310;2022-08-04T13:51:57;3.00;3.00;2.00
68698;PMS7003;55680;48.850;2.310;2022-08-04T13:54:37;5.50;4.00;2.00
68698;PMS7003;55680;48.850;2.310;2022-08-04T13:57:05;3.50;3.50;3.00
68698;PMS7003;55680;48.850;2.310;2022-08-04T13:59:35;2.25;2.25;2.00
68698;PMS7003;55680;48.850;2.310;2022-08-04T14:02:04;4.75;3.25;2.25
68698;PMS7003;55680;48.850;2.310;2022-08-04T14:04:33;3.50;2.75;2.00
68698;PMS7003;55680;48.850;2.310;2022-08-04T14:09:42;2.50;2.50;2.25
68698;PMS7003;55680;48.850;2.310;2022-08-04T14:12:11;3.25;3.25;2.75
68698;PMS7003;55680;48.850;2.310;2022-08-04T14:14:49;2.50;2.00;1.25
68698;PMS7003;55680;48.850;2.310;2022-08-04T14:17:16;2.00;2.00;2.00
68698;PMS7003;55680;48.850;2.310;2022-08-04T14:22:44;2.00;2.00;2.00
68698;PMS7003;55680;48.850;2.310;2022-08-04T14:25:13;5.25;3.00;2.00
68698;PMS7003;55680;48.850;2.310;2022-08-04T14:32:58;2.00;2.00;1.00
68698;PMS7003;55680;48.850;2.310;2022-08-04T14:35:25;2.50;2.50;2.00
68698;PMS7003;55680;48.850;2.310;2022-08-04T14:37:54;5.75;3.25;2.00
68698;PMS7003;55680;48.850;2.310;2022-08-04T14:40:29;5.75;2.00;2.00
68698;PMS7003;55680;48.850;2.310;2022-08-04T14:42:57;4.00;2.25;2.00
68698;PMS7003;55680;48.850;2.310;2022-08-04T14:45:26;1.25;1.00;1.00
68698;PMS7003;55680;48.850;2.310;2022-08-04T14:47:56;2.00;2.00;1.00
68698;PMS7003;55680;48.850;2.310;2022-08-04T14:50:31;3.50;3.00;2.25
68698;PMS7003;55680;48.850;2.310;2022-08-04T14:53:03;4.75;3.00;3.00
68698;PMS7003;55680;48.850;2.310;2022-08-04T14:55:36;2.25;2.25;2.00
68698;PMS7003;55680;48.850;2.310;2022-08-04T14:58:03;3.50;2.25;1.50
68698;PMS7003;55680;48.850;2.310;2022-08-04T15:00:34;1.75;1.75;1.50
68698;PMS7003;55680;48.850;2.310;2022-08-04T15:03:01;2.00;2.00;2.00
68698;PMS7003;55680;48.850;2.310;2022-08-04T15:05:29;1.50;1.50;1.50
68698;PMS7003;55680;48.850;2.310;2022-08-04T15:07:55;3.50;3.50;3.00
68698;PMS7003;55680;48.850;2.310;2022-08-04T15:10:21;4.25;4.25;3.00
68698;PMS7003;55680;48.850;2.310;2022-08-04T15:12:47;6.00;4.00;3.50
68698;PMS7003;55680;48.850;2.310;2022-08-04T15:15:12;3.25;3.00;2.00
68698;PMS7003;55680;48.850;2.310;2022-08-04T15:17:37;5.00;4.00;3.00
68698;PMS7003;55680;48.850;2.310;2022-08-04T15:20:03;5.00;5.00;4.00
68698;PMS7003;55680;48.850;2.310;2022-08-04T15:22:30;3.75;3.25;2.00
68698;PMS7003;55680;48.850;2.310;2022-08-04T15:24:56;3.00;3.00;2.75
68698;PMS7003;55680;48.850;2.310;2022-08-04T15:27:23;5.00;5.00;4.00
68698;PMS7003;55680;48.850;2.310;2022-08-04T15:29:49;5.00;4.00;3.00
68698;PMS7003;55680;48.850;2.310;2022-08-04T15:32:15;4.25;3.50;3.00
68698;PMS7003;55680;48.850;2.310;2022-08-04T15:34:49;3.50;3.50;3.00
68698;PMS7003;55680;48.850;2.310;2022-08-04T15:37:30;3.50;3.50;2.00
68698;PMS7003;55680;48.850;2.310;2022-08-04T15:40:34;3.00;2.75;2.00
68698;PMS7003;55680;48.850;2.310;2022-08-04T15:45:24;3.00;3.00;2.00
68698;PMS7003;55680;48.850;2.310;2022-08-04T15:50:25;4.00;4.00;3.00
68698;PMS7003;55680;48.850;2.310;2022-08-04T15:55:29;5.00;5.00;3.00
68698;PMS7003;55680;48.850;2.310;2022-08-04T15:58:07;4.00;4.00;2.75
68698;PMS7003;55680;48.850;2.310;2022-08-04T16:09:00;5.25;5.25;4.50
68698;PMS7003;55680;48.850;2.310;2022-08-04T16:16:49;5.75;5.25;4.00
68698;PMS7003;55680;48.850;2.310;2022-08-04T16:21:49;4.75;4.75;3.50
68698;PMS7003;55680;48.850;2.310;2022-08-04T16:29:26;6.00;4.75;4.00
68698;PMS7003;55680;48.850;2.310;2022-08-04T16:34:29;4.25;4.25;3.50
68698;PMS7003;55680;48.850;2.310;2022-08-04T16:36:55;5.00;5.00;3.50
68698;PMS7003;55680;48.850;2.310;2022-08-04T16:39:23;5.50;5.50;4.00
68698;PMS7003;55680;48.850;2.310;2022-08-04T16:41:48;7.50;5.25;3.75
68698;PMS7003;55680;48.850;2.310;2022-08-04T16:44:33;5.25;5.25;5.00
68698;PMS7003;55680;48.850;2.310;2022-08-04T16:47:01;6.00;6.00;4.00
68698;PMS7003;55680;48.850;2.310;2022-08-04T16:49:28;4.75;4.75;3.50
68698;PMS7003;55680;48.850;2.310;2022-08-04T16:51:59;7.50;5.00;4.00
68698;PMS7003;55680;48.850;2.310;2022-08-04T16:54:29;6.75;4.00;3.75
68698;PMS7003;55680;48.850;2.310;2022-08-04T16:56:56;6.25;6.25;4.25
68698;PMS7003;55680;48.850;2.310;2022-08-04T16:59:23;8.50;6.75;6.00
68698;PMS7003;55680;48.850;2.310;2022-08-04T17:01:49;5.00;5.00;4.00
68698;PMS7003;55680;48.850;2.310;2022-08-04T17:04:16;5.25;5.00;4.25
68698;PMS7003;55680;48.850;2.310;2022-08-04T17:06:42;4.75;4.00;3.00
68698;PMS7003;55680;48.850;2.310;2022-08-04T17:09:17;5.00;5.00;4.75
68698;PMS7003;55680;48.850;2.310;2022-08-04T17:11:44;5.75;5.00;4.00
68698;PMS7003;55680;48.850;2.310;2022-08-04T17:14:11;10.25;5.00;3.75
68698;PMS7003;55680;48.850;2.310;2022-08-04T17:16:39;8.00;5.25;4.00
68698;PMS7003;55680;48.850;2.310;2022-08-04T17:19:06;7.25;4.00;3.50
68698;PMS7003;55680;48.850;2.310;2022-08-04T17:21:34;5.75;5.75;4.00
68698;PMS7003;55680;48.850;2.310;2022-08-04T17:24:01;4.50;4.50;3.50
68698;PMS7003;55680;48.850;2.310;2022-08-04T17:26:29;6.00;5.25;3.25
68698;PMS7003;55680;48.850;2.310;2022-08-04T17:28:56;4.75;4.50;3.75
68698;PMS7003;55680;48.850;2.310;2022-08-04T17:31:22;6.75;5.50;4.00
68698;PMS7003;55680;48.850;2.310;2022-08-04T17:33:51;5.00;5.00;3.75
68698;PMS7003;55680;48.850;2.310;2022-08-04T17:36:21;4.25;3.00;2.00
68698;PMS7003;55680;48.850;2.310;2022-08-04T17:38:48;5.25;4.50;3.75
68698;PMS7003;55680;48.850;2.310;2022-08-04T17:41:18;4.75;4.75;4.00
68698;PMS7003;55680;48.850;2.310;2022-08-04T17:46:37;7.00;5.75;4.75
68698;PMS7003;55680;48.850;2.310;2022-08-04T17:54:07;5.25;5.25;3.75
68698;PMS7003;55680;48.850;2.310;2022-08-04T17:56:40;5.00;4.00;3.00
68698;PMS7003;55680;48.850;2.310;2022-08-04T17:59:11;8.25;5.00;4.00
68698;PMS7003;55680;48.850;2.310;2022-08-04T18:01:45;2.75;2.75;2.50
68698;PMS7003;55680;48.850;2.310;2022-08-04T18:07:21;5.00;5.00;4.25
68698;PMS7003;55680;48.850;2.310;2022-08-04T18:09:49;3.75;3.75;3.00
68698;PMS7003;55680;48.850;2.310;2022-08-04T18:12:25;5.75;4.75;3.75
68698;PMS7003;55680;48.850;2.310;2022-08-04T18:14:52;8.25;5.75;3.75
68698;PMS7003;55680;48.850;2.310;2022-08-04T18:20:07;7.50;4.00;3.50
68698;PMS7003;55680;48.850;2.310;2022-08-04T18:22:39;5.00;5.00;4.00
68698;PMS7003;55680;48.850;2.310;2022-08-04T18:25:08;8.50;5.75;4.75
68698;PMS7003;55680;48.850;2.310;2022-08-04T18:27:44;10.00;8.75;6.00
68698;PMS7003;55680;48.850;2.310;2022-08-04T18:30:11;8.50;6.75;6.00
68698;PMS7003;55680;48.850;2.310;2022-08-04T18:32:36;7.75;6.50;4.00
68698;PMS7003;55680;48.850;2.310;2022-08-04T18:35:02;8.25;6.25;5.00
68698;PMS7003;55680;48.850;2.310;2022-08-04T18:37:27;6.25;6.25;5.00
68698;PMS7003;55680;48.850;2.310;2022-08-04T18:39:53;8.25;8.25;6.50
68698;PMS7003;55680;48.850;2.310;2022-08-04T18:42:18;3.25;3.25;2.00
68698;PMS7003;55680;48.850;2.310;2022-08-04T18:44:44;5.50;4.50;3.50
68698;PMS7003;55680;48.850;2.310;2022-08-04T18:47:09;10.25;8.25;5.00
68698;PMS7003;55680;48.850;2.310;2022-08-04T18:49:35;5.25;5.25;4.50
68698;PMS7003;55680;48.850;2.310;2022-08-04T18:52:00;8.00;5.50;3.50
68698;PMS7003;55680;48.850;2.310;2022-08-04T18:54:26;4.75;4.75;3.75
68698;PMS7003;55680;48.850;2.310;2022-08-04T18:56:52;6.50;6.50;4.25
68698;PMS7003;55680;48.850;2.310;2022-08-04T18:59:18;4.00;2.00;2.00
68698;PMS7003;55680;48.850;2.310;2022-08-04T19:01:44;4.50;4.50;3.25
68698;PMS7003;55680;48.850;2.310;2022-08-04T19:04:10;3.75;3.00;2.00
68698;PMS7003;55680;48.850;2.310;2022-08-04T19:06:35;4.00;3.00;2.00
68698;PMS7003;55680;48.850;2.310;2022-08-04T19:09:02;5.75;5.00;3.50
68698;PMS7003;55680;48.850;2.310;2022-08-04T19:11:29;6.50;4.00;3.00
68698;PMS7003;55680;48.850;2.310;2022-08-04T19:13:55;5.75;4.00;3.00
68698;PMS7003;55680;48.850;2.310;2022-08-04T19:16:20;6.00;5.00;3.75
68698;PMS7003;55680;48.850;2.310;2022-08-04T19:18:45;5.25;5.25;2.50
68698;PMS7003;55680;48.850;2.310;2022-08-04T19:21:11;4.25;2.75;2.00
68698;PMS7003;55680;48.850;2.310;2022-08-04T19:23:36;7.50;6.00;4.00
68698;PMS7003;55680;48.850;2.310;2022-08-04T19:26:02;4.50;3.00;2.00
68698;PMS7003;55680;48.850;2.310;2022-08-04T19:28:27;2.75;2.75;2.00